createdAt,value
2023-01-26T00:02:11.662Z,99836.64
2023-01-26T00:04:39.235Z,99831.48
2023-01-26T00:07:06.631Z,99828.96
2023-01-26T00:09:34.081Z,99825.62
2023-01-26T00:12:01.649Z,99823.86
2023-01-26T00:14:49.374Z,99821.27
2023-01-26T00:17:25.591Z,99823.36
2023-01-26T00:19:54.940Z,99823.48
2023-01-26T00:22:22.444Z,99826.06
2023-01-26T00:24:50.162Z,99829.00
2023-01-26T00:27:17.976Z,99830.48
2023-01-26T00:29:45.274Z,99829.59
2023-01-26T00:32:16.112Z,99832.95
2023-01-26T00:34:44.558Z,99831.91
2023-01-26T00:37:12.150Z,99834.62
2023-01-26T00:39:39.709Z,99834.94
2023-01-26T00:42:09.348Z,99833.80
2023-01-26T00:44:41.475Z,99837.33
2023-01-26T00:47:10.655Z,99841.50
2023-01-26T00:49:37.982Z,99846.55
2023-01-26T00:52:05.775Z,99848.90
2023-01-26T00:54:33.551Z,99852.80
2023-01-26T00:57:03.894Z,99853.27
2023-01-26T00:59:32.157Z,99855.69
2023-01-26T01:02:02.261Z,99859.55
2023-01-26T01:04:30.262Z,99860.20
2023-01-26T01:06:58.475Z,99857.70
2023-01-26T01:09:26.239Z,99855.82
2023-01-26T01:11:53.801Z,99860.40
2023-01-26T01:14:20.794Z,99868.32
2023-01-26T01:16:48.507Z,99868.55
2023-01-26T01:19:16.988Z,99869.79
2023-01-26T01:21:45.164Z,99869.89
2023-01-26T01:24:12.205Z,99875.16
2023-01-26T01:26:39.212Z,99879.62
2023-01-26T01:29:07.501Z,99884.00
2023-01-26T01:31:35.051Z,99885.02
2023-01-26T01:34:02.048Z,99883.94
2023-01-26T01:36:31.034Z,99886.74
2023-01-26T01:38:59.405Z,99894.77
2023-01-26T01:41:27.245Z,99905.55
2023-01-26T01:44:20.845Z,99910.79
2023-01-26T01:46:54.704Z,99908.53
2023-01-26T01:49:29.187Z,99916.02
2023-01-26T01:52:11.955Z,99912.78
2023-01-26T01:55:09.557Z,99911.02
2023-01-26T01:57:46.634Z,99915.98
2023-01-26T02:00:19.153Z,99916.76
2023-01-26T02:03:11.450Z,99912.98
2023-01-26T02:05:49.449Z,99914.70
2023-01-26T02:08:19.062Z,99921.69
2023-01-26T02:10:48.339Z,99921.58
2023-01-26T02:13:18.791Z,99920.59
2023-01-26T02:15:47.875Z,99922.09
2023-01-26T02:18:15.878Z,99923.08
2023-01-26T02:20:45.723Z,99928.84
2023-01-26T02:23:38.968Z,99923.90
2023-01-26T02:26:20.196Z,99926.18
2023-01-26T02:28:50.010Z,99925.92
2023-01-26T02:31:17.940Z,99922.71
2023-01-26T02:33:45.945Z,99915.23
2023-01-26T02:36:22.826Z,99914.19
2023-01-26T02:39:19.566Z,99912.85
2023-01-26T02:42:05.761Z,99918.51
2023-01-26T02:44:33.530Z,99917.86
2023-01-26T02:47:00.990Z,99922.79
2023-01-26T02:49:47.609Z,99929.36
2023-01-26T02:52:21.925Z,99928.83
2023-01-26T02:55:14.072Z,99934.73
2023-01-26T02:57:42.520Z,99931.07
2023-01-26T03:00:18.121Z,99931.50
2023-01-26T03:02:46.347Z,99937.88
2023-01-26T03:05:14.663Z,99936.53
2023-01-26T03:07:43.627Z,99935.23
2023-01-26T03:10:12.527Z,99934.73
2023-01-26T03:12:40.930Z,99933.44
2023-01-26T03:15:28.115Z,99931.42
2023-01-26T03:18:35.308Z,99931.66
2023-01-26T03:21:24.969Z,99927.63
2023-01-26T03:24:11.431Z,99931.73
2023-01-26T03:26:58.277Z,99930.70
2023-01-26T03:29:26.963Z,99931.77
2023-01-26T03:31:58.516Z,99935.88
2023-01-26T03:34:26.895Z,99936.33
2023-01-26T03:36:54.353Z,99931.94
2023-01-26T03:39:40.695Z,99934.39
2023-01-26T03:42:27.258Z,99935.98
2023-01-26T03:45:13.559Z,99939.06
2023-01-26T03:48:02.646Z,99944.97
2023-01-26T03:50:49.543Z,99944.67
2023-01-26T03:53:41.056Z,99945.41
2023-01-26T03:56:21.868Z,99942.96
2023-01-26T03:58:55.326Z,99946.15
2023-01-26T04:01:28.366Z,99948.05
2023-01-26T04:04:17.891Z,99956.17
2023-01-26T04:07:06.946Z,99959.78
2023-01-26T09:30:18.580Z,100056.30
2023-01-26T09:32:47.583Z,99995.04
2023-01-26T09:35:17.159Z,100006.80
2023-01-26T09:37:46.116Z,100012.27
2023-01-26T09:40:20.458Z,100025.84
2023-01-26T09:43:12.915Z,100037.84
2023-01-26T09:45:47.125Z,100049.13
2023-01-26T09:48:34.432Z,100054.08
2023-01-26T09:51:15.098Z,100061.11
2023-01-26T09:53:47.584Z,100067.11
2023-01-26T09:56:20.590Z,100070.30
2023-01-26T09:59:00.544Z,100075.37
2023-01-26T10:01:51.543Z,100085.48
2023-01-26T10:04:36.963Z,100088.14
2023-01-26T10:07:09.901Z,100095.71
2023-01-26T10:09:50.350Z,100106.16
2023-01-26T10:12:36.607Z,100107.30
2023-01-26T10:15:18.925Z,100113.30
2023-01-26T10:17:48.662Z,100112.19
2023-01-26T10:20:40.667Z,100124.57
2023-01-26T10:23:31.375Z,100124.52
2023-01-26T10:26:14.730Z,100134.25
2023-01-26T10:28:44.545Z,100138.94
2023-01-26T10:31:24.224Z,100149.25
2023-01-26T10:34:02.509Z,100154.79
2023-01-26T10:36:32.514Z,100156.83
2023-01-26T10:39:08.950Z,100159.34
2023-01-26T10:41:37.741Z,100169.65
2023-01-26T10:44:16.044Z,100178.38
2023-01-26T10:46:47.113Z,100174.76
2023-01-26T10:49:16.496Z,100184.49
2023-01-26T10:52:06.702Z,100190.14
2023-01-26T10:54:37.282Z,100197.30
2023-01-26T10:57:23.870Z,100207.97
2023-01-26T10:59:56.220Z,100208.73
2023-01-26T11:02:28.954Z,100215.27
2023-01-26T11:05:07.110Z,100213.50
2023-01-26T11:07:40.584Z,100215.95
2023-01-26T11:10:29.749Z,100213.77
2023-01-26T11:13:19.596Z,100215.81
2023-01-26T11:15:50.181Z,100214.59
2023-01-26T11:18:21.801Z,100209.77
2023-01-26T11:21:28.282Z,100204.73
2023-01-26T11:24:34.049Z,100202.20
2023-01-26T11:27:18.459Z,100199.83
2023-01-26T11:30:21.780Z,100200.63
2023-01-26T11:33:02.139Z,100202.59
2023-01-26T11:36:03.188Z,100210.61
2023-01-26T11:38:39.450Z,100222.03
2023-01-26T11:41:31.220Z,100235.70
2023-01-26T11:44:34.260Z,100249.76
2023-01-26T11:47:05.936Z,100253.27
2023-01-26T11:49:55.103Z,100267.66
2023-01-26T11:52:31.154Z,100268.20
2023-01-26T11:55:24.923Z,100263.02
2023-01-26T11:58:59.754Z,100262.09
2023-01-26T12:01:43.935Z,100258.75
2023-01-26T12:04:19.313Z,100264.77
2023-01-26T12:06:53.972Z,100264.39
2023-01-26T12:09:37.077Z,100265.72
2023-01-26T12:12:12.460Z,100267.00
2023-01-26T12:14:58.320Z,100267.27
2023-01-26T12:17:40.634Z,100266.95
2023-01-26T12:20:26.414Z,100262.54
2023-01-26T12:23:05.644Z,100257.05
2023-01-26T12:25:38.573Z,100249.88
2023-01-26T12:28:16.758Z,100253.35
2023-01-26T12:30:45.305Z,100253.10
2023-01-26T12:33:14.004Z,100252.75
2023-01-26T12:36:12.286Z,100249.14
2023-01-26T12:38:46.892Z,100260.63
2023-01-26T12:41:45.392Z,100268.02
2023-01-26T12:44:32.365Z,100273.23
2023-01-26T12:47:14.418Z,100276.42
2023-01-26T12:50:12.900Z,100276.36
2023-01-26T12:52:43.958Z,100276.59
2023-01-26T12:55:20.507Z,100273.86
2023-01-26T12:57:50.977Z,100276.15
2023-01-26T13:00:31.594Z,100280.75
2023-01-26T13:03:21.375Z,100284.35
2023-01-26T13:06:09.225Z,100283.41
2023-01-26T13:08:38.726Z,100285.92
2023-01-26T13:11:08.957Z,100290.01
2023-01-26T13:13:54.108Z,100298.29
2023-01-26T13:16:23.702Z,100293.73
2023-01-26T13:18:53.733Z,100295.67
2023-01-26T13:21:40.846Z,100294.21
2023-01-26T13:24:18.646Z,100298.41
2023-01-26T13:26:48.766Z,100292.98
2023-01-26T13:29:32.198Z,100292.48
2023-01-26T13:32:10.040Z,100287.13
2023-01-26T13:34:43.421Z,100283.70
2023-01-26T13:37:19.963Z,100274.96
2023-01-26T13:39:52.760Z,100270.33
2023-01-26T13:42:48.655Z,100269.19
2023-01-26T13:45:26.189Z,100258.01
2023-01-26T13:47:55.055Z,100260.52
2023-01-26T13:50:30.405Z,100254.75
2023-01-26T13:53:00.071Z,100252.39
2023-01-26T13:55:32.363Z,100249.51
2023-01-26T13:58:12.317Z,100246.04
2023-01-26T14:00:41.110Z,100236.05
2023-01-26T14:03:24.944Z,100226.13
2023-01-26T14:06:11.438Z,100215.63
2023-01-26T14:08:40.597Z,100207.64
2023-01-26T14:11:28.409Z,100204.88
2023-01-26T14:13:59.094Z,100196.89
2023-01-26T14:16:35.339Z,100184.43
2023-01-26T14:19:17.784Z,100177.49
2023-01-26T14:22:03.778Z,100172.77
2023-01-26T14:24:35.136Z,100165.61
2023-01-26T14:27:04.425Z,100160.91
2023-01-26T14:29:38.472Z,100159.77
2023-01-26T14:32:14.888Z,100156.48
2023-01-26T14:34:54.439Z,100151.36
2023-01-26T14:37:24.808Z,100145.22
2023-01-26T14:40:19.773Z,100138.34
2023-01-26T14:42:49.997Z,100130.44
2023-01-26T14:45:18.997Z,100119.90
2023-01-26T14:47:47.872Z,100114.65
2023-01-26T14:50:30.079Z,100108.34
2023-01-26T14:52:59.999Z,100096.95
2023-01-26T14:55:33.699Z,100089.16
2023-01-26T14:58:02.674Z,100081.33
2023-01-26T15:00:36.201Z,100070.95
2023-01-26T15:03:07.876Z,100059.67
2023-01-26T15:05:37.306Z,100051.41
2023-01-26T15:08:21.290Z,100050.98
2023-01-26T15:11:19.581Z,100042.65
2023-01-26T15:13:53.905Z,100037.11
2023-01-26T15:16:24.253Z,100031.41
2023-01-26T15:19:00.042Z,100031.18
2023-01-26T15:21:34.222Z,100029.11
2023-01-26T15:24:03.491Z,100028.17
2023-01-26T15:26:33.795Z,100024.99
2023-01-26T15:29:05.096Z,100021.50
2023-01-26T15:31:37.948Z,100016.81
2023-01-26T15:34:07.206Z,100018.19
2023-01-26T15:36:47.946Z,100012.23
2023-01-26T15:39:19.394Z,100009.08
2023-01-26T15:42:13.840Z,100004.38
2023-01-26T15:44:43.084Z,100004.46
2023-01-26T15:47:15.402Z,100002.04
2023-01-26T15:49:45.804Z,99995.46
2023-01-26T15:52:16.744Z,99993.73
2023-01-26T15:54:45.755Z,99991.77
2023-01-26T15:57:14.869Z,99990.10
2023-01-26T15:59:44.870Z,99992.48
2023-01-26T16:02:18.700Z,99991.59
2023-01-26T16:04:48.397Z,99989.14
2023-01-26T16:07:38.088Z,99987.48
2023-01-26T16:10:09.116Z,99984.77
2023-01-26T16:12:42.017Z,99982.33
2023-01-26T16:15:23.231Z,99981.98
2023-01-26T16:17:52.668Z,99981.33
2023-01-26T16:20:22.783Z,99982.13
2023-01-26T16:22:51.987Z,99980.23
2023-01-26T16:25:26.548Z,99975.52
2023-01-26T16:27:55.802Z,99972.48
2023-01-26T16:30:25.310Z,99971.56
2023-01-26T16:32:54.302Z,99972.67
2023-01-26T16:35:24.279Z,99968.68
2023-01-26T16:37:53.227Z,99962.42
2023-01-26T16:40:22.422Z,99960.20
2023-01-26T16:42:52.730Z,99961.41
2023-01-26T16:45:24.999Z,99965.65
2023-01-26T16:47:56.350Z,99966.56
2023-01-26T16:50:26.303Z,99964.81
2023-01-26T16:52:55.667Z,99957.21
2023-01-26T16:55:24.555Z,99953.03
2023-01-26T16:57:53.849Z,99951.94
2023-01-26T17:00:25.005Z,99943.29
2023-01-26T17:02:53.687Z,99934.82
2023-01-26T17:05:23.703Z,99941.25
2023-01-26T17:07:52.999Z,99934.80
2023-01-26T17:10:24.444Z,99936.83
2023-01-26T17:12:53.438Z,99933.92
2023-01-26T17:15:24.714Z,99924.52
2023-01-26T17:17:53.721Z,99915.82
2023-01-26T17:20:23.800Z,99915.80
2023-01-26T17:22:52.992Z,99917.98
2023-01-26T17:25:22.505Z,99915.04
2023-01-26T17:27:51.599Z,99908.87
2023-01-26T17:30:21.472Z,99912.25
2023-01-26T17:32:50.723Z,99907.43
2023-01-26T17:35:19.921Z,99908.01
2023-01-26T17:37:49.205Z,99905.06
2023-01-26T17:40:20.252Z,99900.81
2023-01-26T17:42:49.256Z,99903.44
2023-01-26T17:45:18.746Z,99900.21
2023-01-26T17:47:47.842Z,99899.44
2023-01-26T17:50:17.036Z,99898.55
2023-01-26T17:52:46.043Z,99897.15
2023-01-26T17:55:15.226Z,99897.20
2023-01-26T17:57:44.432Z,99899.92
2023-01-26T18:00:14.022Z,99901.34
2023-01-26T18:02:44.349Z,99899.21
2023-01-26T18:05:14.286Z,99899.23
2023-01-26T18:07:43.766Z,99899.55
2023-01-26T18:10:13.605Z,99893.66
2023-01-26T18:12:45.777Z,99893.83
2023-01-26T18:15:15.153Z,99897.59
2023-01-26T18:17:44.345Z,99897.96
2023-01-26T18:20:15.492Z,99895.98
2023-01-26T18:22:44.586Z,99884.95
2023-01-26T18:25:13.619Z,99880.21
2023-01-26T18:27:43.709Z,99879.05
2023-01-26T18:30:13.315Z,99876.39
2023-01-26T18:32:42.295Z,99876.73
2023-01-26T18:35:11.884Z,99872.48
2023-01-26T18:37:41.286Z,99869.42
2023-01-26T18:40:13.227Z,99865.15
2023-01-26T18:42:42.463Z,99862.44
2023-01-26T18:45:11.996Z,99857.55
2023-01-26T18:47:41.699Z,99854.60
2023-01-26T18:50:12.015Z,99851.34
2023-01-26T18:52:41.026Z,99850.89
2023-01-26T18:55:10.873Z,99844.08
2023-01-26T18:57:41.569Z,99840.35
2023-01-26T19:00:11.923Z,99835.48
2023-01-26T19:02:41.399Z,99834.52
2023-01-26T19:05:10.850Z,99829.99
2023-01-26T19:07:41.711Z,99830.58
2023-01-26T19:10:11.215Z,99827.30
2023-01-26T19:12:41.545Z,99821.45
2023-01-26T19:15:11.129Z,99822.64
2023-01-26T19:17:45.168Z,99820.97
2023-01-26T19:20:14.356Z,99816.48
2023-01-26T19:22:43.973Z,99808.86
2023-01-26T19:25:13.786Z,99800.60
2023-01-26T19:27:43.278Z,99795.70
2023-01-26T19:30:13.197Z,99792.70
2023-01-26T19:33:01.061Z,99786.48
2023-01-26T19:35:30.756Z,99781.52
2023-01-26T19:38:00.051Z,99780.41
2023-01-26T19:40:29.236Z,99783.81
2023-01-26T19:42:58.292Z,99783.29
2023-01-26T19:45:27.642Z,99784.98
2023-01-26T19:47:56.839Z,99781.81
2023-01-26T19:50:26.026Z,99779.24
2023-01-26T19:52:55.121Z,99774.53
2023-01-26T19:55:24.466Z,99772.50
2023-01-26T19:57:53.715Z,99773.79
2023-01-26T20:00:22.791Z,99769.45
2023-01-26T20:02:52.007Z,99759.23
2023-01-26T20:05:21.409Z,99751.46
2023-01-26T20:07:50.403Z,99747.70
2023-01-26T20:10:20.219Z,99748.42
2023-01-26T20:12:50.850Z,99739.07
2023-01-26T20:15:20.663Z,99740.57
2023-01-26T20:17:49.786Z,99732.77
2023-01-26T20:20:19.256Z,99733.98
2023-01-26T20:22:48.598Z,99734.80
2023-01-26T20:25:20.522Z,99731.15
2023-01-26T20:27:50.435Z,99731.08
2023-01-26T20:30:20.059Z,99731.18
2023-01-26T20:32:53.025Z,99729.98
2023-01-26T20:35:22.245Z,99723.73
2023-01-26T20:37:52.453Z,99724.74
2023-01-26T20:40:22.163Z,99725.13
2023-01-26T20:42:53.510Z,99721.52
2023-01-26T20:45:24.452Z,99717.98
2023-01-26T20:47:53.470Z,99714.84
2023-01-26T20:50:23.246Z,99715.39
2023-01-26T20:52:52.048Z,99718.02
2023-01-26T20:55:21.476Z,99712.47
2023-01-26T20:57:53.807Z,99714.51
2023-01-26T21:00:23.829Z,99712.84
2023-01-26T21:02:55.297Z,99713.59
2023-01-26T21:05:26.326Z,99715.02
2023-01-26T21:07:56.649Z,99721.36
2023-01-26T21:10:26.057Z,99723.17
2023-01-26T21:12:55.241Z,99719.81
2023-01-26T21:15:24.334Z,99716.27
2023-01-26T21:17:53.528Z,99718.59
2023-01-26T21:20:22.461Z,99715.94
2023-01-26T21:22:51.724Z,99708.42
2023-01-26T21:25:20.584Z,99705.48
2023-01-26T21:28:09.269Z,99714.08
2023-01-26T21:30:39.306Z,99716.41
2023-01-26T21:33:08.477Z,99719.80
2023-01-26T21:35:39.422Z,99721.56
2023-01-26T21:38:08.939Z,99723.55
2023-01-26T21:40:38.220Z,99724.52
2023-01-26T21:43:07.249Z,99722.51
2023-01-26T21:45:54.657Z,99727.34
2023-01-26T21:48:36.174Z,99725.26
2023-01-26T21:51:24.275Z,99721.67
2023-01-26T21:53:53.567Z,99723.08
2023-01-26T21:56:22.559Z,99721.83
2023-01-26T21:58:54.625Z,99725.96
2023-01-26T22:01:24.885Z,99730.55
2023-01-26T22:03:57.683Z,99735.13
2023-01-26T22:06:26.722Z,99736.52
2023-01-26T22:08:56.433Z,99739.77
2023-01-26T22:11:26.245Z,99744.30
2023-01-26T22:13:55.144Z,99741.45
2023-01-26T22:16:26.022Z,99744.15
2023-01-26T22:18:55.178Z,99745.16
2023-01-26T22:21:25.390Z,99742.58
